Time;durP1;ratioP1;P1;durP2;ratioP2;P2;SDS_P1;SDS_P2;PMS_P1;PMS_P2;Temp;Humidity;BMP_temperature;BMP_pressure;BME280_temperature;BME280_humidity;BME280_pressure;Samples;Min_cycle;Max_cycle;Signal;HPM_P1;HPM_P2
2022/10/14 00:00:12;;;;;;;;;;;10.70;99.90;;;;;;5096864;28;19915;-85
2022/10/14 00:02:38;;;;;;;;;;;10.80;99.90;;;;;;5078104;28;20344;-84
2022/10/14 00:05:04;;;;;;;;;;;10.70;99.90;;;;;;5096736;28;19911;-85
2022/10/14 00:07:29;;;;;;;;;;;10.70;99.90;;;;;;5077850;28;19908;-84
2022/10/14 00:09:55;;;;;;;;;;;10.70;99.90;;;;;;5096884;28;19911;-84
2022/10/14 00:12:20;;;;;;;;;;;10.60;99.90;;;;;;5054264;28;19948;-85
2022/10/14 00:14:46;;;;;;;;;;;10.60;99.90;;;;;;5042049;28;20275;-85
2022/10/14 00:17:12;;;;;;;;;;;10.50;99.90;;;;;;5051515;28;19935;-85
2022/10/14 00:19:37;;;;;;;;;;;10.40;99.90;;;;;;5078519;28;20076;-85
2022/10/14 00:22:03;;;;;;;;;;;10.40;99.90;;;;;;5078421;28;19923;-85
2022/10/14 00:24:28;;;;;;;;;;;10.30;99.90;;;;;;5078141;28;19923;-85
2022/10/14 00:26:54;;;;;;;;;;;10.40;99.90;;;;;;5076869;28;19904;-85
2022/10/14 00:29:19;;;;;;;;;;;10.40;99.90;;;;;;5095489;28;19908;-85
2022/10/14 00:31:45;;;;;;;;;;;10.40;99.90;;;;;;5058141;28;20011;-85
2022/10/14 00:34:13;;;;;;;;;;;10.40;99.90;;;;;;5058660;28;19913;-85
2022/10/14 00:36:39;;;;;;;;;;;10.50;99.90;;;;;;5063224;28;19918;-85
2022/10/14 00:39:05;;;;;;;;;;;10.50;99.90;;;;;;5058088;28;19912;-85
2022/10/14 00:41:31;;;;;;;;;;;10.50;99.90;;;;;;5055609;28;19915;-84
2022/10/14 00:44:05;;;;;;;;;;;10.50;99.90;;;;;;5068580;28;19908;-85
2022/10/14 00:46:32;;;;;;;;;;;10.50;99.90;;;;;;5096249;28;19995;-85
2022/10/14 00:48:59;;;;;;;;;;;10.50;99.90;;;;;;5096081;28;20017;-85
2022/10/14 00:51:25;;;;;;;;;;;10.50;99.90;;;;;;5096049;28;20287;-85
2022/10/14 00:53:51;;;;;;;;;;;10.50;99.90;;;;;;5061172;28;19957;-85
2022/10/14 00:56:20;;;;;;;;;;;10.50;99.90;;;;;;5077849;28;20364;-85
2022/10/14 00:58:46;;;;;;;;;;;10.50;99.90;;;;;;5095891;28;19911;-85
2022/10/14 01:01:12;;;;;;;;;;;10.40;99.90;;;;;;5057704;28;20292;-85
2022/10/14 01:03:38;;;;;;;;;;;10.30;99.90;;;;;;5069014;28;20336;-84
2022/10/14 01:06:10;;;;;;;;;;;10.30;99.90;;;;;;5077720;28;19904;-85
2022/10/14 01:09:02;;;;;;;;;;;10.30;99.90;;;;;;5077571;28;19911;-84
2022/10/14 01:11:43;;;;;;;;;;;10.30;99.90;;;;;;5072812;28;19954;-84
2022/10/14 01:14:23;;;;;;;;;;;10.20;99.90;;;;;;5077608;28;20381;-84
2022/10/14 01:16:49;;;;;;;;;;;10.20;99.90;;;;;;5095683;28;19908;-85
2022/10/14 01:19:21;;;;;;;;;;;10.10;99.90;;;;;;5077465;28;20405;-85
2022/10/14 01:22:06;;;;;;;;;;;10.10;99.90;;;;;;5095514;28;20396;-84
2022/10/14 01:24:51;;;;;;;;;;;10.10;99.90;;;;;;5080959;28;19904;-85
2022/10/14 01:27:22;;;;;;;;;;;10.10;99.90;;;;;;5077204;28;19958;-84
2022/10/14 01:29:47;;;;;;;;;;;10.10;99.90;;;;;;5077015;28;19904;-85
2022/10/14 01:32:22;;;;;;;;;;;10.10;99.90;;;;;;5077156;28;19991;-85
2022/10/14 01:34:54;;;;;;;;;;;10.10;99.90;;;;;;5077459;28;19926;-85
2022/10/14 01:37:23;;;;;;;;;;;10.10;99.90;;;;;;5077068;28;20010;-85
2022/10/14 01:39:53;;;;;;;;;;;10.20;99.90;;;;;;5095078;28;19911;-85
2022/10/14 01:42:21;;;;;;;;;;;10.20;99.90;;;;;;5094924;28;20306;-84
2022/10/14 01:44:49;;;;;;;;;;;10.30;99.90;;;;;;5075586;28;19911;-84
2022/10/14 01:47:17;;;;;;;;;;;10.30;99.90;;;;;;5094657;28;19904;-84
2022/10/14 01:49:46;;;;;;;;;;;10.30;99.90;;;;;;5076848;28;20002;-84
2022/10/14 01:52:26;;;;;;;;;;;10.30;99.90;;;;;;5090159;28;19904;-84
2022/10/14 01:54:53;;;;;;;;;;;10.40;99.90;;;;;;5094597;28;20354;-84
2022/10/14 01:57:21;;;;;;;;;;;10.40;99.90;;;;;;5091682;28;19908;-84
2022/10/14 01:59:47;;;;;;;;;;;10.40;99.90;;;;;;5063335;28;19939;-84
2022/10/14 02:02:13;;;;;;;;;;;10.40;99.90;;;;;;5094087;28;19908;-83
2022/10/14 02:04:38;;;;;;;;;;;10.40;99.90;;;;;;5075128;28;19904;-83
2022/10/14 02:07:10;;;;;;;;;;;10.40;99.90;;;;;;5092497;28;19908;-83
2022/10/14 02:09:46;;;;;;;;;;;10.40;99.90;;;;;;5094446;28;19954;-83
2022/10/14 02:12:15;;;;;;;;;;;10.50;99.90;;;;;;5072618;28;19915;-84
2022/10/14 02:14:40;;;;;;;;;;;10.50;99.90;;;;;;5094516;28;19998;-83
2022/10/14 02:17:18;;;;;;;;;;;10.50;99.90;;;;;;5094274;28;20011;-83
2022/10/14 02:19:57;;;;;;;;;;;10.50;99.90;;;;;;5094214;28;19904;-83
2022/10/14 02:22:28;;;;;;;;;;;10.50;99.90;;;;;;5076166;28;20003;-83
2022/10/14 02:24:56;;;;;;;;;;;10.50;99.90;;;;;;5092978;28;19904;-82
2022/10/14 02:27:24;;;;;;;;;;;10.60;99.90;;;;;;5073398;28;19904;-83
2022/10/14 02:29:50;;;;;;;;;;;10.50;99.90;;;;;;5092626;28;19919;-83
2022/10/14 02:32:17;;;;;;;;;;;10.50;99.90;;;;;;5092057;28;19912;-82
2022/10/14 02:34:46;;;;;;;;;;;10.50;99.90;;;;;;5092337;28;19995;-82
2022/10/14 02:37:12;;;;;;;;;;;10.60;99.90;;;;;;5092563;28;19907;-82
2022/10/14 02:39:42;;;;;;;;;;;10.60;99.90;;;;;;5094643;28;19912;-82
2022/10/14 02:42:07;;;;;;;;;;;10.50;99.90;;;;;;5076054;28;19996;-82
2022/10/14 02:44:33;;;;;;;;;;;10.50;99.90;;;;;;5072472;28;19999;-82
2022/10/14 02:46:59;;;;;;;;;;;10.50;99.90;;;;;;5091516;28;19957;-82
2022/10/14 02:49:24;;;;;;;;;;;10.50;99.90;;;;;;5094153;28;20360;-82
2022/10/14 02:51:50;;;;;;;;;;;10.50;99.90;;;;;;5053942;28;19938;-82
2022/10/14 02:54:15;;;;;;;;;;;10.50;99.90;;;;;;5074807;28;19912;-83
2022/10/14 02:56:41;;;;;;;;;;;10.50;99.90;;;;;;5075106;28;19912;-83
2022/10/14 02:59:06;;;;;;;;;;;10.40;99.90;;;;;;5076251;28;19912;-83
2022/10/14 03:01:32;;;;;;;;;;;10.40;99.90;;;;;;5092394;28;19904;-83
2022/10/14 03:03:58;;;;;;;;;;;10.40;99.90;;;;;;5076124;28;19904;-83
2022/10/14 03:06:23;;;;;;;;;;;10.40;99.90;;;;;;5093703;28;20007;-83
2022/10/14 03:08:49;;;;;;;;;;;10.40;99.90;;;;;;5076098;28;19908;-83
2022/10/14 03:11:14;;;;;;;;;;;10.50;99.90;;;;;;5059445;28;19911;-83
2022/10/14 03:13:40;;;;;;;;;;;10.50;99.90;;;;;;5076401;28;19927;-83
2022/10/14 03:16:05;;;;;;;;;;;10.50;99.90;;;;;;5076452;28;19922;-83
2022/10/14 03:18:31;;;;;;;;;;;10.50;99.90;;;;;;5094259;28;19908;-83
2022/10/14 03:20:56;;;;;;;;;;;10.50;99.90;;;;;;5093766;28;19919;-83
2022/10/14 03:23:22;;;;;;;;;;;10.50;99.90;;;;;;5094101;28;19908;-83
2022/10/14 03:25:47;;;;;;;;;;;10.60;99.90;;;;;;5094611;28;20356;-83
2022/10/14 03:28:13;;;;;;;;;;;10.60;99.90;;;;;;5093986;28;20275;-83
2022/10/14 03:30:39;;;;;;;;;;;10.60;99.90;;;;;;5075894;28;19915;-83
2022/10/14 03:33:04;;;;;;;;;;;10.60;99.90;;;;;;5075998;28;19919;-83
2022/10/14 03:35:30;;;;;;;;;;;10.60;99.90;;;;;;5094608;28;19904;-83
2022/10/14 03:37:58;;;;;;;;;;;10.50;99.90;;;;;;5075894;28;19915;-82
2022/10/14 03:40:23;;;;;;;;;;;10.50;99.90;;;;;;5089602;28;19904;-82
2022/10/14 03:42:49;;;;;;;;;;;10.50;99.90;;;;;;5076116;28;19916;-82
2022/10/14 03:45:15;;;;;;;;;;;10.50;99.90;;;;;;5094283;28;19955;-83
2022/10/14 03:47:40;;;;;;;;;;;10.50;99.90;;;;;;5094162;28;19973;-83
2022/10/14 03:50:06;;;;;;;;;;;10.50;99.90;;;;;;5094042;28;19938;-83
2022/10/14 03:52:32;;;;;;;;;;;10.50;99.90;;;;;;5076582;28;20421;-83
2022/10/14 03:54:57;;;;;;;;;;;10.40;99.90;;;;;;5093157;28;19912;-83
2022/10/14 03:57:23;;;;;;;;;;;10.50;99.90;;;;;;5092221;28;19965;-83
2022/10/14 03:59:48;;;;;;;;;;;10.50;99.90;;;;;;5075565;28;19912;-83
2022/10/14 04:02:14;;;;;;;;;;;10.50;99.90;;;;;;5073142;28;20387;-83
2022/10/14 04:04:39;;;;;;;;;;;10.40;99.90;;;;;;5075699;28;19976;-83
2022/10/14 04:07:05;;;;;;;;;;;10.40;99.90;;;;;;5070214;28;20081;-83
2022/10/14 04:09:31;;;;;;;;;;;10.40;99.90;;;;;;5053635;28;20391;-83
2022/10/14 04:11:57;;;;;;;;;;;10.40;99.90;;;;;;5054710;28;19934;-83
2022/10/14 04:14:23;;;;;;;;;;;10.40;99.90;;;;;;5070741;28;20367;-83
2022/10/14 04:16:48;;;;;;;;;;;10.40;99.90;;;;;;5093522;28;19912;-83
2022/10/14 04:19:14;;;;;;;;;;;10.40;99.90;;;;;;5076572;28;19957;-83
2022/10/14 04:21:40;;;;;;;;;;;10.40;99.90;;;;;;5096250;28;19915;-83
2022/10/14 04:24:05;;;;;;;;;;;10.50;99.90;;;;;;5078219;28;19922;-83
2022/10/14 04:26:31;;;;;;;;;;;10.40;99.90;;;;;;5095828;28;19908;-83
2022/10/14 04:28:56;;;;;;;;;;;10.40;99.90;;;;;;5061575;28;19912;-83
2022/10/14 04:31:22;;;;;;;;;;;10.40;99.90;;;;;;5078302;28;19908;-83
2022/10/14 04:33:47;;;;;;;;;;;10.40;99.90;;;;;;5096806;28;20387;-84
2022/10/14 04:36:13;;;;;;;;;;;10.30;99.90;;;;;;5077924;28;20379;-84
2022/10/14 04:38:38;;;;;;;;;;;10.30;99.90;;;;;;5075257;28;19998;-84
2022/10/14 04:41:04;;;;;;;;;;;10.30;99.90;;;;;;5057705;28;19981;-84
2022/10/14 04:43:29;;;;;;;;;;;10.30;99.90;;;;;;5041064;28;20330;-84
2022/10/14 04:45:55;;;;;;;;;;;10.30;99.90;;;;;;5059948;28;19912;-84
2022/10/14 04:48:21;;;;;;;;;;;10.30;99.90;;;;;;5096322;28;19908;-84
2022/10/14 04:50:49;;;;;;;;;;;10.40;99.90;;;;;;5056676;28;20007;-83
2022/10/14 04:53:14;;;;;;;;;;;10.40;99.90;;;;;;5077955;28;19915;-84
2022/10/14 04:55:40;;;;;;;;;;;10.40;99.90;;;;;;5077966;28;19908;-84
2022/10/14 04:58:05;;;;;;;;;;;10.40;99.90;;;;;;5058436;28;19918;-84
2022/10/14 05:00:31;;;;;;;;;;;10.40;99.90;;;;;;5060823;28;19916;-84
2022/10/14 05:02:57;;;;;;;;;;;10.40;99.90;;;;;;5077802;28;19912;-84
2022/10/14 05:05:22;;;;;;;;;;;10.40;99.90;;;;;;5077451;28;19908;-84
2022/10/14 05:07:48;;;;;;;;;;;10.50;99.90;;;;;;5077647;28;19943;-84
2022/10/14 05:10:13;;;;;;;;;;;10.50;99.90;;;;;;5057506;28;20293;-84
2022/10/14 05:12:39;;;;;;;;;;;10.50;99.90;;;;;;5070884;28;19911;-84
2022/10/14 05:15:05;;;;;;;;;;;10.60;99.90;;;;;;5060755;28;19908;-84
2022/10/14 05:17:31;;;;;;;;;;;10.60;99.90;;;;;;5077353;28;19955;-84
2022/10/14 05:19:56;;;;;;;;;;;10.60;99.90;;;;;;5077430;28;19912;-85
2022/10/14 05:22:22;;;;;;;;;;;10.60;99.90;;;;;;5076869;28;19962;-84
2022/10/14 05:24:47;;;;;;;;;;;10.70;99.90;;;;;;5055345;28;19908;-85
2022/10/14 05:27:13;;;;;;;;;;;10.70;99.90;;;;;;5091624;28;19908;-85
2022/10/14 05:29:39;;;;;;;;;;;10.70;99.90;;;;;;5075809;28;20371;-84
2022/10/14 05:32:04;;;;;;;;;;;10.70;99.90;;;;;;5094493;28;19931;-84
2022/10/14 05:34:30;;;;;;;;;;;10.70;99.90;;;;;;5077327;28;20295;-84
2022/10/14 05:36:55;;;;;;;;;;;10.70;99.90;;;;;;5076514;28;19912;-84
2022/10/14 05:39:21;;;;;;;;;;;10.80;99.90;;;;;;5075378;28;19958;-85
2022/10/14 05:41:46;;;;;;;;;;;10.80;99.90;;;;;;5094346;28;19908;-85
2022/10/14 05:44:12;;;;;;;;;;;10.80;99.90;;;;;;5093445;28;19908;-85
2022/10/14 05:46:37;;;;;;;;;;;10.80;99.90;;;;;;5077094;28;20291;-85
2022/10/14 05:49:04;;;;;;;;;;;10.80;99.90;;;;;;5060185;28;20371;-84
2022/10/14 05:51:33;;;;;;;;;;;10.80;99.90;;;;;;5060183;28;19961;-84
2022/10/14 05:53:59;;;;;;;;;;;10.80;99.90;;;;;;5094891;28;19998;-84
2022/10/14 05:56:25;;;;;;;;;;;10.80;99.90;;;;;;5076384;28;19999;-84
2022/10/14 05:58:50;;;;;;;;;;;10.80;99.90;;;;;;5076615;28;20007;-84
2022/10/14 06:01:16;;;;;;;;;;;10.80;99.90;;;;;;5094729;28;19934;-84
2022/10/14 06:03:41;;;;;;;;;;;10.70;99.90;;;;;;5076637;28;19915;-84
2022/10/14 06:06:15;;;;;;;;;;;10.70;99.90;;;;;;5076991;28;20294;-84
2022/10/14 06:08:41;;;;;;;;;;;10.70;99.90;;;;;;5094862;28;19911;-84
2022/10/14 06:11:07;;;;;;;;;;;10.80;99.90;;;;;;5094738;28;20355;-84
2022/10/14 06:13:33;;;;;;;;;;;10.80;99.90;;;;;;5094389;28;19904;-84
2022/10/14 06:16:06;;;;;;;;;;;10.80;99.90;;;;;;5076367;28;19957;-84
2022/10/14 06:18:32;;;;;;;;;;;10.80;99.90;;;;;;5094621;28;19903;-84
2022/10/14 06:20:57;;;;;;;;;;;10.80;99.90;;;;;;5094379;28;19912;-85
2022/10/14 06:23:23;;;;;;;;;;;10.80;99.90;;;;;;5076326;28;19912;-85
2022/10/14 06:25:49;;;;;;;;;;;10.80;99.90;;;;;;5093423;28;20002;-85
2022/10/14 06:28:14;;;;;;;;;;;10.80;99.90;;;;;;5094176;28;19904;-85
2022/10/14 06:30:40;;;;;;;;;;;10.80;99.90;;;;;;5088356;28;19911;-85
2022/10/14 06:33:05;;;;;;;;;;;10.80;99.90;;;;;;5059414;28;19912;-85
2022/10/14 06:35:31;;;;;;;;;;;10.80;99.90;;;;;;5075777;28;19958;-85
2022/10/14 06:37:56;;;;;;;;;;;10.90;99.90;;;;;;5076186;28;19908;-85
2022/10/14 06:40:22;;;;;;;;;;;10.90;99.90;;;;;;5056179;28;19908;-85
2022/10/14 06:42:47;;;;;;;;;;;10.90;99.90;;;;;;5075545;28;19908;-85
2022/10/14 06:45:13;;;;;;;;;;;10.90;99.90;;;;;;5094495;28;20397;-85
2022/10/14 06:47:39;;;;;;;;;;;10.90;99.90;;;;;;5076170;28;19940;-85
2022/10/14 06:50:04;;;;;;;;;;;11.00;99.90;;;;;;5094045;28;19929;-85
2022/10/14 06:52:30;;;;;;;;;;;11.00;99.90;;;;;;5075696;28;19926;-85
2022/10/14 06:54:55;;;;;;;;;;;11.00;99.90;;;;;;5094242;28;20282;-85
2022/10/14 06:57:21;;;;;;;;;;;11.00;99.90;;;;;;5075683;28;20344;-85
2022/10/14 06:59:46;;;;;;;;;;;11.00;99.90;;;;;;5075685;28;20416;-85
2022/10/14 07:02:12;;;;;;;;;;;11.00;99.90;;;;;;5075945;28;20371;-85
2022/10/14 07:04:38;;;;;;;;;;;11.00;99.90;;;;;;5075971;28;20364;-85
2022/10/14 07:07:05;;;;;;;;;;;11.10;99.90;;;;;;5093672;28;20003;-85
2022/10/14 07:09:31;;;;;;;;;;;11.10;99.90;;;;;;5076539;28;20378;-86
2022/10/14 07:11:56;;;;;;;;;;;11.10;99.90;;;;;;5075116;28;19953;-85
2022/10/14 07:14:22;;;;;;;;;;;11.10;99.90;;;;;;5075669;28;19908;-86
2022/10/14 07:16:47;;;;;;;;;;;11.20;99.90;;;;;;5075539;28;19912;-85
2022/10/14 07:19:13;;;;;;;;;;;11.20;99.90;;;;;;5075738;28;19915;-85
2022/10/14 07:21:39;;;;;;;;;;;11.20;99.90;;;;;;5075364;28;19908;-85
2022/10/14 07:24:05;;;;;;;;;;;11.20;99.90;;;;;;5076024;28;19990;-86
2022/10/14 07:26:30;;;;;;;;;;;11.20;99.90;;;;;;5075653;28;19919;-85
2022/10/14 07:28:56;;;;;;;;;;;11.30;99.90;;;;;;5093572;28;19912;-85
2022/10/14 07:31:21;;;;;;;;;;;11.30;99.90;;;;;;5075556;28;20010;-85
2022/10/14 07:33:47;;;;;;;;;;;11.40;99.90;;;;;;5099090;28;20373;-86
2022/10/14 07:36:14;;;;;;;;;;;11.40;99.90;;;;;;5076876;28;19908;-86
2022/10/14 07:38:40;;;;;;;;;;;11.40;99.90;;;;;;5095405;28;19908;-85
2022/10/14 07:41:07;;;;;;;;;;;11.50;99.90;;;;;;5074400;28;19908;-86
2022/10/14 07:43:34;;;;;;;;;;;11.50;99.90;;;;;;5093911;28;19904;-86
2022/10/14 07:46:06;;;;;;;;;;;11.60;99.90;;;;;;5093553;28;19905;-86
2022/10/14 07:48:32;;;;;;;;;;;11.60;99.90;;;;;;5093192;28;19904;-86
2022/10/14 07:50:58;;;;;;;;;;;11.70;99.90;;;;;;5075019;28;20279;-85
2022/10/14 07:53:24;;;;;;;;;;;11.70;99.90;;;;;;5093303;28;19904;-85
2022/10/14 07:55:52;;;;;;;;;;;11.80;99.90;;;;;;5097331;28;19919;-85
2022/10/14 07:58:19;;;;;;;;;;;11.90;99.90;;;;;;5078590;28;19904;-86
2022/10/14 08:00:45;;;;;;;;;;;11.90;99.90;;;;;;5096892;28;20350;-86
2022/10/14 08:03:10;;;;;;;;;;;11.90;99.90;;;;;;5078838;28;19908;-85
2022/10/14 08:05:36;;;;;;;;;;;12.00;99.90;;;;;;5096687;28;19916;-85
2022/10/14 08:08:02;;;;;;;;;;;12.00;99.90;;;;;;5078750;28;19908;-85
2022/10/14 08:10:28;;;;;;;;;;;12.10;99.90;;;;;;5096818;28;19949;-85
2022/10/14 08:12:53;;;;;;;;;;;12.10;99.90;;;;;;5096781;28;19904;-85
2022/10/14 08:15:19;;;;;;;;;;;12.20;99.90;;;;;;5096874;28;19982;-84
2022/10/14 08:17:45;;;;;;;;;;;12.20;99.90;;;;;;5096740;28;20007;-85
2022/10/14 08:20:11;;;;;;;;;;;12.30;99.90;;;;;;5096730;28;19985;-85
2022/10/14 08:22:36;;;;;;;;;;;12.40;99.90;;;;;;5089830;28;20247;-85
2022/10/14 08:25:02;;;;;;;;;;;12.40;99.90;;;;;;5078498;28;19987;-85
2022/10/14 08:27:28;;;;;;;;;;;12.50;99.90;;;;;;5096329;28;20383;-85
2022/10/14 08:29:53;;;;;;;;;;;12.60;99.90;;;;;;5061559;28;19947;-85
2022/10/14 08:32:19;;;;;;;;;;;12.70;99.90;;;;;;5078270;28;19914;-85
2022/10/14 08:34:44;;;;;;;;;;;12.80;99.90;;;;;;5078527;28;19908;-85
2022/10/14 08:37:12;;;;;;;;;;;12.80;99.90;;;;;;5096254;28;19938;-85
2022/10/14 08:39:42;;;;;;;;;;;12.90;99.90;;;;;;5078734;28;19995;-85
2022/10/14 08:42:28;;;;;;;;;;;13.00;99.90;;;;;;5096023;28;20398;-85
2022/10/14 08:44:55;;;;;;;;;;;13.00;99.90;;;;;;5096190;28;19978;-85
2022/10/14 08:47:25;;;;;;;;;;;13.10;99.90;;;;;;5077976;28;19904;-85
2022/10/14 08:50:01;;;;;;;;;;;13.20;99.90;;;;;;5096268;28;19926;-85
2022/10/14 08:52:29;;;;;;;;;;;13.30;99.90;;;;;;5095896;28;19912;-85
2022/10/14 08:55:02;;;;;;;;;;;13.30;99.90;;;;;;5096086;28;20360;-85
2022/10/14 08:57:32;;;;;;;;;;;13.40;99.90;;;;;;5077454;28;20007;-85
2022/10/14 08:59:58;;;;;;;;;;;13.40;99.90;;;;;;5077453;28;20389;-85
2022/10/14 09:02:32;;;;;;;;;;;13.50;99.90;;;;;;5077317;28;19908;-85
2022/10/14 09:04:58;;;;;;;;;;;13.50;99.90;;;;;;5093437;28;20350;-85
2022/10/14 09:07:24;;;;;;;;;;;13.60;99.90;;;;;;5092912;28;19951;-85
2022/10/14 09:09:55;;;;;;;;;;;13.70;99.90;;;;;;5093755;28;20279;-85
2022/10/14 09:12:26;;;;;;;;;;;13.80;99.90;;;;;;5092929;28;19958;-85
2022/10/14 09:15:08;;;;;;;;;;;13.90;99.90;;;;;;5094659;28;19904;-84
2022/10/14 09:17:35;;;;;;;;;;;13.90;99.90;;;;;;5077281;28;19908;-84
2022/10/14 09:20:00;;;;;;;;;;;14.00;99.90;;;;;;5095645;28;19957;-84
2022/10/14 09:22:26;;;;;;;;;;;14.00;99.90;;;;;;5077191;28;20317;-84
2022/10/14 09:24:52;;;;;;;;;;;14.10;99.90;;;;;;5095574;28;19926;-85
2022/10/14 09:27:22;;;;;;;;;;;14.10;99.90;;;;;;5079311;28;19912;-84
2022/10/14 09:29:48;;;;;;;;;;;14.10;99.90;;;;;;5089116;28;19904;-84
2022/10/14 09:32:15;;;;;;;;;;;14.20;99.90;;;;;;5076992;28;19904;-84
2022/10/14 09:34:44;;;;;;;;;;;14.30;99.90;;;;;;5095184;28;20356;-84
2022/10/14 09:37:24;;;;;;;;;;;14.30;99.90;;;;;;5076744;28;19977;-84
2022/10/14 09:39:50;;;;;;;;;;;14.40;99.90;;;;;;5076308;28;19934;-84
2022/10/14 09:42:22;;;;;;;;;;;14.40;99.90;;;;;;5090316;28;19998;-84
2022/10/14 09:45:21;;;;;;;;;;;14.40;99.90;;;;;;5095055;28;19904;-84
2022/10/14 09:47:53;;;;;;;;;;;14.60;99.90;;;;;;5049184;28;19908;-84
2022/10/14 09:50:20;;;;;;;;;;;14.60;99.90;;;;;;5075925;28;19911;-85
2022/10/14 09:52:54;;;;;;;;;;;14.70;99.90;;;;;;5090958;28;19953;-84
2022/10/14 09:55:22;;;;;;;;;;;14.80;99.90;;;;;;5076924;28;19957;-84
2022/10/14 09:57:54;;;;;;;;;;;14.90;99.90;;;;;;5076156;28;20256;-84
2022/10/14 10:00:24;;;;;;;;;;;14.90;99.90;;;;;;5074409;28;19912;-84
2022/10/14 10:02:51;;;;;;;;;;;14.90;99.90;;;;;;5094658;28;19908;-84
2022/10/14 10:05:17;;;;;;;;;;;15.00;99.90;;;;;;5060117;28;19955;-84
2022/10/14 10:07:42;;;;;;;;;;;15.00;99.90;;;;;;5094447;28;19915;-84
2022/10/14 10:10:19;;;;;;;;;;;15.10;99.90;;;;;;5093514;28;19917;-84
2022/10/14 10:12:46;;;;;;;;;;;15.10;99.90;;;;;;5075944;28;19904;-84
2022/10/14 10:15:20;;;;;;;;;;;15.10;99.90;;;;;;5094493;28;19904;-85
2022/10/14 10:17:46;;;;;;;;;;;15.20;99.90;;;;;;5075585;28;19943;-85
2022/10/14 10:20:27;;;;;;;;;;;15.20;99.90;;;;;;5076093;28;19904;-85
2022/10/14 10:22:56;;;;;;;;;;;15.20;99.90;;;;;;5097379;28;19904;-85
2022/10/14 10:25:25;;;;;;;;;;;15.30;99.90;;;;;;5078473;28;19960;-85
2022/10/14 10:27:51;;;;;;;;;;;15.40;99.90;;;;;;5075917;28;19904;-85
2022/10/14 10:30:17;;;;;;;;;;;15.50;99.90;;;;;;5071496;28;19915;-85
2022/10/14 10:32:45;;;;;;;;;;;15.50;99.90;;;;;;5094084;28;19908;-85
2022/10/14 10:35:11;;;;;;;;;;;15.60;99.90;;;;;;5075955;28;19904;-85
2022/10/14 10:37:43;;;;;;;;;;;15.70;99.90;;;;;;5094088;28;19919;-84
2022/10/14 10:40:32;;;;;;;;;;;15.80;99.90;;;;;;5094227;28;20016;-85
2022/10/14 10:43:22;;;;;;;;;;;15.90;99.90;;;;;;5044737;28;19926;-85
2022/10/14 10:46:06;;;;;;;;;;;16.00;99.90;;;;;;5094139;28;19984;-85
2022/10/14 10:49:00;;;;;;;;;;;16.10;99.90;;;;;;5076070;28;19911;-85
2022/10/14 10:51:46;;;;;;;;;;;16.20;99.90;;;;;;5072109;28;20003;-85
2022/10/14 10:54:14;;;;;;;;;;;16.20;99.90;;;;;;5042824;28;19912;-85
2022/10/14 10:56:53;;;;;;;;;;;16.20;99.90;;;;;;5093951;28;19915;-84
2022/10/14 10:59:19;;;;;;;;;;;16.20;99.90;;;;;;5093383;28;19911;-84
2022/10/14 11:01:44;;;;;;;;;;;16.30;99.90;;;;;;5075767;28;19931;-82
2022/10/14 11:04:22;;;;;;;;;;;16.40;99.90;;;;;;5075717;28;19911;-82
2022/10/14 11:12:33;;;;;;;;;;;16.60;99.90;;;;;;5090944;28;19924;-84
2022/10/14 11:15:08;;;;;;;;;;;16.60;99.90;;;;;;5093887;28;19904;-84
2022/10/14 11:18:02;;;;;;;;;;;16.70;99.90;;;;;;5093725;28;20275;-85
2022/10/14 11:20:57;;;;;;;;;;;16.70;99.90;;;;;;5076381;28;19904;-84
2022/10/14 11:23:41;;;;;;;;;;;16.80;99.90;;;;;;5055889;28;20371;-84
2022/10/14 11:26:19;;;;;;;;;;;16.80;99.90;;;;;;5090590;28;19908;-85
2022/10/14 11:28:44;;;;;;;;;;;16.90;99.90;;;;;;5075258;28;19982;-83
2022/10/14 11:31:10;;;;;;;;;;;16.90;99.90;;;;;;5095370;28;19939;-84
2022/10/14 11:33:38;;;;;;;;;;;17.00;99.90;;;;;;5097963;28;19904;-84
2022/10/14 11:36:10;;;;;;;;;;;17.00;99.90;;;;;;5097865;28;20302;-84
2022/10/14 11:38:35;;;;;;;;;;;17.10;99.90;;;;;;5097332;28;20359;-84
2022/10/14 11:41:16;;;;;;;;;;;17.20;99.90;;;;;;5083653;28;19911;-84
2022/10/14 11:43:47;;;;;;;;;;;17.20;99.90;;;;;;5097074;28;19953;-84
2022/10/14 11:46:16;;;;;;;;;;;17.30;99.90;;;;;;5097412;28;19904;-84
2022/10/14 11:48:54;;;;;;;;;;;17.30;99.90;;;;;;5097324;28;20340;-85
2022/10/14 11:51:35;;;;;;;;;;;17.40;99.90;;;;;;5097099;28;19910;-84
2022/10/14 11:54:15;;;;;;;;;;;17.50;99.90;;;;;;5079108;28;19925;-84
2022/10/14 11:56:48;;;;;;;;;;;17.50;99.90;;;;;;5096994;28;20317;-85
2022/10/14 11:59:17;;;;;;;;;;;17.60;99.90;;;;;;5094941;28;20344;-85
2022/10/14 12:01:43;;;;;;;;;;;17.60;99.90;;;;;;5094808;28;20321;-85
2022/10/14 12:04:27;;;;;;;;;;;17.60;99.90;;;;;;5096027;28;19946;-86
2022/10/14 12:07:12;;;;;;;;;;;17.60;99.90;;;;;;5077401;28;19994;-85
2022/10/14 12:09:41;;;;;;;;;;;17.60;99.90;;;;;;5077922;28;19908;-85
2022/10/14 12:12:10;;;;;;;;;;;17.60;99.90;;;;;;5093108;28;20279;-85
2022/10/14 12:14:35;;;;;;;;;;;17.70;99.90;;;;;;5096593;28;19908;-85
2022/10/14 12:17:06;;;;;;;;;;;17.80;99.90;;;;;;5094591;28;20290;-85
2022/10/14 12:19:31;;;;;;;;;;;17.80;99.90;;;;;;5093886;28;19908;-84
2022/10/14 12:21:57;;;;;;;;;;;17.90;99.90;;;;;;5076725;28;19915;-85
2022/10/14 12:24:27;;;;;;;;;;;17.90;99.90;;;;;;5096545;28;19907;-85
2022/10/14 12:26:52;;;;;;;;;;;18.00;99.90;;;;;;5077391;28;19904;-85
2022/10/14 12:29:20;;;;;;;;;;;18.00;99.30;;;;;;5093404;28;19904;-84
2022/10/14 12:31:50;;;;;;;;;;;18.00;99.90;;;;;;5075637;28;20348;-84
2022/10/14 12:34:24;;;;;;;;;;;18.10;99.90;;;;;;5096168;28;19908;-84
2022/10/14 12:36:50;;;;;;;;;;;18.10;99.90;;;;;;5077924;28;19915;-85
2022/10/14 12:39:15;;;;;;;;;;;18.20;97.90;;;;;;5095918;28;20359;-85
2022/10/14 12:41:48;;;;;;;;;;;18.30;99.90;;;;;;5090103;28;20003;-84
2022/10/14 12:44:17;;;;;;;;;;;18.30;99.40;;;;;;5096128;28;20374;-84
2022/10/14 12:46:44;;;;;;;;;;;18.40;99.40;;;;;;5077923;28;20010;-84
2022/10/14 12:49:18;;;;;;;;;;;18.40;98.80;;;;;;5081521;28;20375;-84
2022/10/14 12:51:54;;;;;;;;;;;18.50;99.80;;;;;;5095741;28;19919;-84
2022/10/14 12:54:19;;;;;;;;;;;18.50;98.40;;;;;;5096096;28;19904;-84
2022/10/14 12:56:56;;;;;;;;;;;18.50;97.70;;;;;;5095915;28;19912;-83
2022/10/14 12:59:25;;;;;;;;;;;18.40;98.70;;;;;;5093582;28;19992;-83
2022/10/14 13:01:55;;;;;;;;;;;18.50;98.70;;;;;;5092699;28;20378;-83
2022/10/14 13:04:21;;;;;;;;;;;18.50;98.30;;;;;;5077606;28;19911;-84
2022/10/14 13:07:05;;;;;;;;;;;18.50;97.20;;;;;;5095751;28;19908;-84
2022/10/14 13:09:34;;;;;;;;;;;18.60;96.80;;;;;;5095664;28;19904;-84
2022/10/14 13:12:00;;;;;;;;;;;18.60;97.20;;;;;;5094206;28;20003;-84
2022/10/14 13:14:34;;;;;;;;;;;18.60;96.50;;;;;;5095416;28;19950;-84
2022/10/14 13:17:03;;;;;;;;;;;18.50;96.00;;;;;;5095606;28;20357;-83
2022/10/14 13:19:28;;;;;;;;;;;18.50;97.60;;;;;;5077651;28;19908;-84
2022/10/14 13:21:54;;;;;;;;;;;18.50;98.10;;;;;;5095542;28;19904;-84
2022/10/14 13:24:22;;;;;;;;;;;18.50;98.30;;;;;;5095559;28;19957;-83
2022/10/14 13:26:53;;;;;;;;;;;18.50;98.90;;;;;;5095429;28;19949;-83
2022/10/14 13:29:18;;;;;;;;;;;18.60;98.60;;;;;;5095389;28;20595;-84
2022/10/14 13:31:50;;;;;;;;;;;18.50;99.10;;;;;;5094625;28;19904;-83
2022/10/14 13:34:21;;;;;;;;;;;18.50;98.70;;;;;;5092742;28;19950;-84
2022/10/14 13:37:03;;;;;;;;;;;18.50;99.00;;;;;;5093228;28;19912;-83
2022/10/14 13:39:31;;;;;;;;;;;18.40;98.80;;;;;;5094162;28;19954;-83
2022/10/14 13:41:57;;;;;;;;;;;18.40;98.90;;;;;;5091581;28;19911;-83
2022/10/14 13:44:24;;;;;;;;;;;18.30;99.40;;;;;;5095141;28;19904;-83
2022/10/14 13:46:50;;;;;;;;;;;18.20;99.90;;;;;;5095182;28;19904;-83
2022/10/14 13:49:17;;;;;;;;;;;18.10;98.80;;;;;;5097111;28;19915;-82
2022/10/14 13:51:43;;;;;;;;;;;18.10;98.90;;;;;;5092391;28;19904;-83
2022/10/14 13:54:35;;;;;;;;;;;18.00;99.80;;;;;;5076648;28;19904;-83
2022/10/14 13:57:09;;;;;;;;;;;18.00;99.20;;;;;;5070334;28;20003;-83
2022/10/14 13:59:35;;;;;;;;;;;18.00;99.90;;;;;;5094499;28;19916;-85
2022/10/14 14:02:02;;;;;;;;;;;17.90;99.90;;;;;;5094672;28;19915;-84
2022/10/14 14:04:33;;;;;;;;;;;17.90;99.90;;;;;;5076662;28;19913;-84
2022/10/14 14:06:59;;;;;;;;;;;17.90;99.90;;;;;;5094627;28;19926;-84
2022/10/14 14:09:26;;;;;;;;;;;17.80;99.90;;;;;;5094671;28;20360;-84
2022/10/14 14:11:53;;;;;;;;;;;17.80;99.90;;;;;;5087786;28;19904;-84
2022/10/14 14:14:29;;;;;;;;;;;17.70;99.90;;;;;;5111714;27;19918;-73
2022/10/14 14:16:56;;;;;;;;;;;17.60;99.90;;;;;;5111396;28;19916;-72
2022/10/14 14:19:25;;;;;;;;;;;17.50;99.90;;;;;;5111404;28;19908;-72
2022/10/14 14:21:51;;;;;;;;;;;17.50;99.90;;;;;;5109960;28;19912;-73
2022/10/14 14:24:24;;;;;;;;;;;17.40;99.90;;;;;;5111274;28;19958;-70
2022/10/14 14:26:54;;;;;;;;;;;17.30;99.90;;;;;;5119790;22;19924;-82
2022/10/14 14:29:21;;;;;;;;;;;17.40;99.90;;;;;;5110969;28;20395;-82